Time;durP1;ratioP1;P1;durP2;ratioP2;P2;SDS_P1;SDS_P2;PMS_P1;PMS_P2;Temp;Humidity;BMP_temperature;BMP_pressure;BME280_temperature;BME280_humidity;BME280_pressure;Samples;Min_cycle;Max_cycle;Signal;HPM_P1;HPM_P2
2021/05/27 00:00:36;;;;;;;16.23;10.55;;;10.00;99.90;;;;;;4985394;28;20050;-47
2021/05/27 00:03:07;;;;;;;19.40;10.02;;;10.00;99.90;;;;;;4985233;28;20133;-48
2021/05/27 00:05:33;;;;;;;19.48;11.07;;;10.00;99.90;;;;;;4987140;28;20137;-46
2021/05/27 00:08:02;;;;;;;20.48;10.98;;;10.10;99.90;;;;;;4990573;28;20595;-48
2021/05/27 00:10:35;;;;;;;17.77;11.18;;;10.10;99.90;;;;;;4987040;28;20162;-48
2021/05/27 00:13:01;;;;;;;17.73;11.00;;;10.10;99.90;;;;;;4986639;28;20088;-47
2021/05/27 00:15:29;;;;;;;22.02;11.85;;;10.00;99.90;;;;;;4988445;28;20497;-45
2021/05/27 00:17:56;;;;;;;22.60;11.40;;;10.00;99.90;;;;;;5003683;28;20277;-48
2021/05/27 00:20:25;;;;;;;17.70;11.02;;;10.00;99.90;;;;;;4970225;28;20153;-45
2021/05/27 00:22:51;;;;;;;17.25;11.30;;;10.10;99.90;;;;;;4986668;28;20383;-47
2021/05/27 00:25:18;;;;;;;22.83;10.43;;;10.10;99.90;;;;;;4989681;28;20120;-44
2021/05/27 00:27:46;;;;;;;16.60;9.85;;;10.10;99.90;;;;;;5006719;28;20116;-47
2021/05/27 00:30:17;;;;;;;16.83;10.05;;;10.10;99.90;;;;;;5008891;28;20060;-48
2021/05/27 00:32:43;;;;;;;17.67;11.20;;;10.10;99.90;;;;;;5005738;28;20049;-47
2021/05/27 00:35:12;;;;;;;19.35;10.05;;;10.10;99.90;;;;;;5011238;28;20108;-46
2021/05/27 00:37:38;;;;;;;17.95;10.85;;;10.10;99.90;;;;;;5006252;28;20054;-44
2021/05/27 00:40:09;;;;;;;17.40;9.95;;;10.10;99.90;;;;;;5008007;28;20061;-48
2021/05/27 00:42:35;;;;;;;17.92;10.45;;;10.10;99.90;;;;;;5006430;28;20073;-47
2021/05/27 00:45:06;;;;;;;13.48;9.32;;;10.10;99.90;;;;;;5006343;28;20136;-48
2021/05/27 00:47:33;;;;;;;16.65;10.05;;;10.10;99.90;;;;;;5006953;28;20054;-47
2021/05/27 00:49:59;;;;;;;17.50;9.57;;;10.10;99.90;;;;;;5010110;28;20050;-45
2021/05/27 00:52:32;;;;;;;16.45;10.75;;;10.10;99.90;;;;;;4987129;28;20471;-44
2021/05/27 00:54:59;;;;;;;14.13;10.45;;;10.10;99.90;;;;;;4988843;28;20069;-46
2021/05/27 00:57:34;;;;;;;18.23;10.55;;;10.10;99.90;;;;;;4989368;28;20149;-48
2021/05/27 01:00:08;;;;;;;21.10;11.85;;;10.10;99.90;;;;;;5022037;28;20105;-47
2021/05/27 01:02:37;;;;;;;17.85;9.73;;;10.10;99.90;;;;;;5004903;28;20128;-46
2021/05/27 01:05:07;;;;;;;17.25;9.68;;;10.10;99.90;;;;;;5023165;28;20046;-47
2021/05/27 01:07:34;;;;;;;18.33;10.10;;;10.10;99.90;;;;;;4994427;28;20137;-45
2021/05/27 01:10:05;;;;;;;18.02;9.32;;;10.10;99.90;;;;;;4993091;28;20060;-45
2021/05/27 01:12:33;;;;;;;20.20;10.53;;;10.10;99.90;;;;;;5013159;28;20108;-45
2021/05/27 01:17:51;;;;;;;23.67;10.15;;;10.10;99.90;;;;;;5010357;28;20806;-45
2021/05/27 01:20:19;;;;;;;17.25;10.60;;;10.10;99.90;;;;;;5010711;28;20110;-44
2021/05/27 01:22:48;;;;;;;19.55;10.18;;;10.00;99.90;;;;;;4992843;28;20750;-52
2021/05/27 01:25:15;;;;;;;22.58;10.50;;;10.10;99.90;;;;;;5011698;28;20141;-46
2021/05/27 01:27:44;;;;;;;17.58;9.82;;;10.00;99.90;;;;;;5015540;28;20534;-44
2021/05/27 01:30:13;;;;;;;20.17;9.88;;;10.00;99.90;;;;;;4973593;28;20061;-51
2021/05/27 01:32:42;;;;;;;22.00;10.13;;;10.10;99.90;;;;;;4992412;28;20053;-45
2021/05/27 01:35:15;;;;;;;18.77;10.60;;;10.10;99.90;;;;;;4973674;28;20050;-47
2021/05/27 01:37:44;;;;;;;16.92;10.18;;;10.10;99.90;;;;;;4988810;28;20046;-48
2021/05/27 01:40:16;;;;;;;18.02;9.90;;;10.10;99.90;;;;;;4994488;28;20125;-48
2021/05/27 01:42:45;;;;;;;22.95;9.75;;;10.10;99.90;;;;;;4990463;28;20058;-47
2021/05/27 01:45:12;;;;;;;19.35;9.63;;;10.10;99.90;;;;;;4980947;28;20526;-46
2021/05/27 01:47:47;;;;;;;17.15;9.23;;;10.10;99.90;;;;;;4990362;28;20562;-44
2021/05/27 01:50:20;;;;;;;15.85;9.15;;;10.10;99.90;;;;;;4989830;28;20062;-47
2021/05/27 01:52:55;;;;;;;19.02;9.05;;;10.10;99.90;;;;;;4972607;28;20057;-47
2021/05/27 01:55:23;;;;;;;19.05;8.73;;;10.10;99.90;;;;;;4972737;28;20053;-46
2021/05/27 01:57:52;;;;;;;17.55;9.98;;;10.10;99.90;;;;;;4975099;28;20136;-44
2021/05/27 02:00:19;;;;;;;17.70;9.75;;;10.10;99.90;;;;;;5006030;28;20108;-48
2021/05/27 02:02:55;;;;;;;15.82;9.02;;;10.10;99.90;;;;;;4990316;28;20561;-46
2021/05/27 02:05:28;;;;;;;16.45;9.38;;;10.10;99.90;;;;;;4973387;28;20050;-45
2021/05/27 02:08:00;;;;;;;18.63;9.77;;;10.10;99.90;;;;;;4990913;28;20129;-47
2021/05/27 02:10:53;;;;;;;18.98;9.55;;;10.10;99.90;;;;;;4987661;28;20164;-46
2021/05/27 02:13:20;;;;;;;17.20;8.85;;;10.10;99.90;;;;;;4990109;28;20574;-47
2021/05/27 02:15:52;;;;;;;20.13;10.27;;;10.10;99.90;;;;;;4972673;28;20057;-45
2021/05/27 02:18:21;;;;;;;18.13;9.50;;;10.10;99.90;;;;;;4972307;28;20526;-47
2021/05/27 02:20:51;;;;;;;14.48;9.00;;;10.10;99.90;;;;;;4972167;28;20057;-46
2021/05/27 02:23:18;;;;;;;15.65;9.13;;;10.10;99.90;;;;;;4975944;28;20133;-47
2021/05/27 02:25:44;;;;;;;22.20;9.98;;;10.10;99.90;;;;;;4990477;28;20058;-48
2021/05/27 02:28:25;;;;;;;15.27;9.65;;;10.10;99.90;;;;;;4971848;28;20053;-45
2021/05/27 02:30:52;;;;;;;19.70;9.75;;;10.10;99.90;;;;;;4990896;28;20122;-46
2021/05/27 02:33:22;;;;;;;18.77;9.88;;;10.10;99.90;;;;;;4972077;28;20129;-48
2021/05/27 02:35:53;;;;;;;19.33;8.77;;;10.10;99.90;;;;;;4988764;28;20069;-45
2021/05/27 02:38:22;;;;;;;13.80;8.32;;;10.10;99.90;;;;;;4971622;28;20050;-48
2021/05/27 02:40:49;;;;;;;15.73;8.88;;;10.10;99.90;;;;;;4973510;28;20152;-46
2021/05/27 02:43:23;;;;;;;15.80;9.18;;;10.10;99.90;;;;;;4972485;28;20069;-48
2021/05/27 02:45:52;;;;;;;14.05;8.45;;;10.10;99.90;;;;;;4978343;28;20674;-48
2021/05/27 02:48:20;;;;;;;14.10;8.70;;;10.10;99.90;;;;;;4972316;28;20046;-46
2021/05/27 02:50:51;;;;;;;17.52;8.25;;;10.10;99.90;;;;;;4990021;28;20053;-47
2021/05/27 02:53:20;;;;;;;18.95;9.15;;;10.10;99.90;;;;;;4971816;28;20050;-46
2021/05/27 02:55:48;;;;;;;15.80;8.38;;;10.10;99.90;;;;;;4971493;28;20057;-50
2021/05/27 02:58:15;;;;;;;16.80;9.77;;;10.10;99.90;;;;;;4974656;28;20057;-50
2021/05/27 03:00:44;;;;;;;14.88;9.15;;;10.10;99.90;;;;;;4990438;28;20498;-44
2021/05/27 03:03:23;;;;;;;14.23;9.32;;;10.10;99.90;;;;;;4989292;28;20054;-47
2021/05/27 03:05:53;;;;;;;18.08;9.68;;;10.10;99.90;;;;;;4987077;28;20077;-48
2021/05/27 03:08:23;;;;;;;17.45;9.27;;;10.10;99.90;;;;;;4968834;28;20138;-47
2021/05/27 03:10:50;;;;;;;14.20;8.05;;;10.00;99.90;;;;;;4971923;28;20054;-47
2021/05/27 03:13:17;;;;;;;12.98;8.25;;;10.00;99.90;;;;;;5003837;28;20056;-49
2021/05/27 03:15:46;;;;;;;16.25;7.63;;;10.00;99.90;;;;;;4973180;28;20054;-45
2021/05/27 03:18:19;;;;;;;15.07;7.80;;;10.00;99.90;;;;;;4988967;28;20054;-49
2021/05/27 03:20:48;;;;;;;13.40;7.80;;;10.00;99.90;;;;;;4975032;28;20102;-46
2021/05/27 03:23:15;;;;;;;11.30;6.80;;;10.00;99.90;;;;;;4975944;28;20479;-47
2021/05/27 03:25:42;;;;;;;12.98;7.43;;;10.00;99.90;;;;;;4980390;28;20085;-45
2021/05/27 03:28:13;;;;;;;15.18;8.20;;;10.00;99.90;;;;;;4990031;28;20572;-47
2021/05/27 03:30:42;;;;;;;14.65;7.97;;;10.00;99.90;;;;;;5008197;28;20050;-47
2021/05/27 03:33:10;;;;;;;12.00;6.05;;;10.00;99.90;;;;;;4991491;28;20092;-49
2021/05/27 03:35:37;;;;;;;12.85;6.35;;;10.00;99.90;;;;;;4990777;28;20058;-45
2021/05/27 03:38:05;;;;;;;10.32;5.68;;;10.00;99.90;;;;;;4990684;28;20053;-46
2021/05/27 03:40:32;;;;;;;9.85;5.97;;;10.00;99.90;;;;;;5009491;28;20053;-45
2021/05/27 03:43:02;;;;;;;13.93;6.30;;;10.00;99.90;;;;;;4992988;28;20132;-45
2021/05/27 03:45:34;;;;;;;10.95;5.47;;;10.00;99.90;;;;;;4990512;28;20182;-45
2021/05/27 03:48:06;;;;;;;10.55;5.70;;;10.00;99.90;;;;;;4988972;28;20079;-45
2021/05/27 03:50:34;;;;;;;10.90;5.20;;;10.00;99.90;;;;;;5008122;28;20050;-46
2021/05/27 03:53:07;;;;;;;10.23;5.65;;;9.90;99.90;;;;;;4991654;28;20057;-46
2021/05/27 03:55:33;;;;;;;14.93;5.72;;;10.00;99.90;;;;;;4990126;28;20049;-47
2021/05/27 03:58:00;;;;;;;13.23;6.45;;;10.00;99.90;;;;;;4990219;28;20263;-48
2021/05/27 04:00:46;;;;;;;9.63;5.88;;;10.00;99.90;;;;;;5007487;28;20168;-48
2021/05/27 04:09:15;;;;;;;15.38;5.95;;;10.00;99.90;;;;;;4945405;29;20531;-47
2021/05/27 04:11:43;;;;;;;9.68;5.13;;;10.00;99.90;;;;;;4943366;29;20071;-47
2021/05/27 04:14:14;;;;;;;10.85;5.43;;;9.90;99.90;;;;;;4966159;28;20145;-48
2021/05/27 04:16:43;;;;;;;11.82;5.15;;;9.90;99.90;;;;;;4945127;28;20084;-46
2021/05/27 04:19:15;;;;;;;9.73;5.20;;;9.90;99.90;;;;;;4944220;28;20050;-47
2021/05/27 04:21:46;;;;;;;8.77;5.63;;;9.90;99.90;;;;;;4951402;28;20047;-47
2021/05/27 04:24:12;;;;;;;10.65;5.28;;;9.90;99.90;;;;;;4961383;28;20285;-48
2021/05/27 04:26:46;;;;;;;9.48;5.28;;;9.90;99.90;;;;;;4944431;28;20051;-46
2021/05/27 04:29:15;;;;;;;8.43;5.97;;;9.90;99.90;;;;;;4933793;28;20047;-48
2021/05/27 04:31:46;;;;;;;7.68;5.22;;;9.90;99.90;;;;;;4946415;29;20141;-44
2021/05/27 04:34:15;;;;;;;8.60;5.30;;;9.90;99.90;;;;;;4949648;28;20043;-48
2021/05/27 04:36:42;;;;;;;9.75;6.60;;;9.90;99.90;;;;;;4940060;29;20059;-48
2021/05/27 04:39:10;;;;;;;11.20;5.97;;;9.90;99.90;;;;;;4962304;28;20050;-46
2021/05/27 04:41:42;;;;;;;12.88;6.95;;;9.90;99.90;;;;;;5017423;28;20081;-46
2021/05/27 04:44:11;;;;;;;12.32;6.65;;;9.90;99.90;;;;;;5010017;28;20042;-45
2021/05/27 04:46:40;;;;;;;13.38;6.40;;;9.90;99.90;;;;;;5007814;28;20061;-47
2021/05/27 04:49:08;;;;;;;12.63;5.47;;;9.90;99.90;;;;;;5008118;28;20046;-47
2021/05/27 04:51:35;;;;;;;10.00;5.93;;;9.90;99.90;;;;;;5018543;28;20041;-47
2021/05/27 04:54:03;;;;;;;11.27;5.72;;;9.90;99.90;;;;;;5015210;28;20061;-50
2021/05/27 04:56:33;;;;;;;14.48;5.72;;;9.90;99.90;;;;;;5020780;28;20046;-45
2021/05/27 04:59:02;;;;;;;9.65;5.85;;;9.90;99.90;;;;;;5008075;28;20050;-49
2021/05/27 05:01:33;;;;;;;9.52;5.20;;;10.00;99.90;;;;;;5011328;28;20460;-48
2021/05/27 05:03:59;;;;;;;10.38;5.75;;;10.00;99.90;;;;;;5008364;28;20053;-46
2021/05/27 05:06:27;;;;;;;11.65;5.60;;;10.00;99.90;;;;;;5007410;28;20065;-51
2021/05/27 05:08:55;;;;;;;9.43;5.53;;;10.10;99.90;;;;;;5007396;28;20128;-46
2021/05/27 05:11:22;;;;;;;10.48;5.72;;;10.10;99.90;;;;;;4989687;28;20061;-47
2021/05/27 05:13:49;;;;;;;12.38;5.57;;;10.10;99.90;;;;;;5022418;28;20053;-49
2021/05/27 05:16:15;;;;;;;10.00;5.35;;;10.10;99.90;;;;;;5007251;28;20053;-48
2021/05/27 05:18:41;;;;;;;9.65;5.43;;;10.10;99.90;;;;;;5006803;28;20097;-48
2021/05/27 05:21:07;;;;;;;11.20;6.20;;;10.10;99.90;;;;;;5007017;28;20054;-46
2021/05/27 05:23:35;;;;;;;15.52;6.80;;;10.10;99.90;;;;;;5007136;28;20050;-48
2021/05/27 05:26:05;;;;;;;14.63;6.20;;;10.10;99.90;;;;;;4979633;28;20117;-54
2021/05/27 05:28:32;;;;;;;15.52;5.97;;;10.10;99.90;;;;;;4982826;28;20125;-48
2021/05/27 05:30:58;;;;;;;13.40;5.63;;;10.00;99.90;;;;;;4993487;28;20574;-46
2021/05/27 05:33:24;;;;;;;12.18;6.10;;;10.00;99.90;;;;;;4992008;28;20042;-45
2021/05/27 05:35:51;;;;;;;13.50;5.93;;;10.00;99.90;;;;;;4998115;28;20494;-47
2021/05/27 05:38:18;;;;;;;12.32;7.40;;;10.10;99.90;;;;;;4986137;28;20054;-46
2021/05/27 05:40:44;;;;;;;12.88;6.45;;;10.10;99.90;;;;;;4979086;28;20136;-50
2021/05/27 05:43:11;;;;;;;13.55;6.85;;;10.10;99.90;;;;;;4997162;28;20051;-51
2021/05/27 05:45:38;;;;;;;11.90;6.22;;;10.10;99.90;;;;;;4989725;28;20130;-45
2021/05/27 05:48:07;;;;;;;12.48;6.07;;;10.10;99.90;;;;;;4986961;28;20054;-46
2021/05/27 05:50:49;;;;;;;13.63;6.63;;;10.10;99.90;;;;;;4988267;28;20054;-47
2021/05/27 05:53:23;;;;;;;36.70;28.80;;;10.10;99.90;;;;;;5001224;28;20042;-49
2021/05/27 05:55:52;;;;;;;16.45;9.50;;;10.10;99.90;;;;;;4992361;28;20062;-47
2021/05/27 05:58:19;;;;;;;12.50;6.50;;;10.10;99.90;;;;;;4991055;28;20054;-47
2021/05/27 06:00:47;;;;;;;16.35;7.75;;;10.10;99.90;;;;;;4976194;28;20122;-44
2021/05/27 06:03:13;;;;;;;17.35;7.30;;;10.10;99.90;;;;;;4995658;28;20390;-46
2021/05/27 06:05:58;;;;;;;16.48;8.10;;;10.10;99.90;;;;;;4989843;28;20130;-48
2021/05/27 06:08:45;;;;;;;18.33;13.25;;;10.10;99.90;;;;;;4998070;28;20049;-49
2021/05/27 06:11:11;;;;;;;15.13;7.47;;;10.10;99.90;;;;;;4995659;28;20068;-44
2021/05/27 06:13:37;;;;;;;14.75;8.95;;;10.10;99.90;;;;;;4987046;28;20230;-47
2021/05/27 06:16:04;;;;;;;13.32;6.72;;;10.10;99.90;;;;;;4993627;28;20047;-46
2021/05/27 06:18:30;;;;;;;19.13;8.00;;;10.10;99.90;;;;;;4989199;28;20050;-50
2021/05/27 06:21:19;;;;;;;20.20;10.13;;;10.10;99.90;;;;;;4990850;28;20058;-48
2021/05/27 06:23:48;;;;;;;15.48;7.50;;;10.20;99.90;;;;;;4974824;28;20101;-49
2021/05/27 06:26:14;;;;;;;16.73;7.85;;;10.10;99.90;;;;;;4996818;28;20073;-43
2021/05/27 06:28:41;;;;;;;17.83;9.50;;;10.10;99.90;;;;;;5014724;28;20069;-46
2021/05/27 06:31:09;;;;;;;17.15;7.90;;;10.10;99.90;;;;;;5012208;28;20049;-46
2021/05/27 06:33:36;;;;;;;22.60;10.90;;;10.10;99.90;;;;;;5014169;28;20486;-46
2021/05/27 06:36:07;;;;;;;17.35;7.63;;;10.20;99.90;;;;;;5017572;28;20049;-46
2021/05/27 06:38:36;;;;;;;15.18;7.88;;;10.20;99.90;;;;;;5008953;28;20082;-45
2021/05/27 06:41:05;;;;;;;17.00;8.35;;;10.30;99.90;;;;;;5022600;28;20077;-49
2021/05/27 06:43:33;;;;;;;21.70;11.77;;;10.30;99.90;;;;;;5012117;28;20141;-46
2021/05/27 06:46:04;;;;;;;14.80;7.45;;;10.40;99.90;;;;;;5013388;28;20086;-46
2021/05/27 06:48:33;;;;;;;18.10;9.40;;;10.40;99.90;;;;;;5011514;28;20057;-44
2021/05/27 06:51:02;;;;;;;19.48;9.68;;;10.40;99.90;;;;;;5009538;28;20585;-47
2021/05/27 06:53:33;;;;;;;14.83;7.37;;;10.40;99.90;;;;;;5018174;28;20176;-49
2021/05/27 06:56:03;;;;;;;18.25;8.15;;;10.50;99.90;;;;;;5011344;28;20486;-44
2021/05/27 06:58:29;;;;;;;15.57;7.35;;;10.40;99.90;;;;;;5019911;28;20041;-48
2021/05/27 07:01:04;;;;;;;14.35;7.15;;;10.40;99.90;;;;;;5021431;28;20041;-46
2021/05/27 07:03:33;;;;;;;16.50;8.15;;;10.50;99.90;;;;;;5008461;28;20083;-48
2021/05/27 07:06:02;;;;;;;14.13;7.63;;;10.40;99.90;;;;;;5012883;28;20053;-47
2021/05/27 07:08:32;;;;;;;;;;;10.40;99.90;;;;;;5020241;28;20057;-52
2021/05/27 07:10:58;;;;;;;16.33;8.75;;;10.50;99.90;;;;;;5013639;28;19925;-48
2021/05/27 07:13:27;;;;;;;19.92;9.18;;;10.50;99.90;;;;;;5001167;28;20107;-47
2021/05/27 07:15:53;;;;;;;15.02;7.93;;;10.50;99.90;;;;;;5015880;28;20490;-50
2021/05/27 07:18:20;;;;;;;23.33;11.27;;;10.50;99.90;;;;;;5022883;28;20072;-49
2021/05/27 07:20:46;;;;;;;20.98;10.93;;;10.50;99.90;;;;;;5020131;28;20053;-52
2021/05/27 07:23:17;;;;;;;17.58;9.00;;;10.50;99.90;;;;;;5012564;28;20109;-47
2021/05/27 07:25:43;;;;;;;19.60;8.63;;;10.50;99.90;;;;;;5015893;28;20046;-50
2021/05/27 07:28:12;;;;;;;22.33;10.02;;;10.50;99.90;;;;;;5013611;28;20049;-48
2021/05/27 07:30:38;;;;;;;17.48;9.55;;;10.50;99.90;;;;;;5008927;28;20053;-45
2021/05/27 07:33:07;;;;;;;17.88;9.30;;;10.50;99.90;;;;;;5012785;28;20054;-44
2021/05/27 07:35:36;;;;;;;68.10;54.70;;;10.50;99.90;;;;;;5009704;28;20046;-49
2021/05/27 07:38:03;;;;;;;19.15;10.00;;;10.60;99.90;;;;;;5028940;28;20049;-49
2021/05/27 07:40:30;;;;;;;23.23;10.50;;;10.50;99.90;;;;;;5020380;28;20073;-46
2021/05/27 07:42:57;;;;;;;18.63;9.43;;;10.60;99.90;;;;;;4997821;28;20050;-51
2021/05/27 07:45:24;;;;;;;21.35;12.48;;;10.60;99.90;;;;;;5018254;28;20053;-47
2021/05/27 07:47:53;;;;;;;14.45;8.15;;;10.70;99.90;;;;;;5019812;28;20065;-49
2021/05/27 07:50:23;;;;;;;24.85;14.82;;;10.70;99.90;;;;;;5015078;28;20045;-49
2021/05/27 07:52:51;;;;;;;16.38;8.98;;;10.60;99.90;;;;;;5019490;28;20053;-50
2021/05/27 07:55:17;;;;;;;18.65;8.80;;;10.60;99.90;;;;;;5012446;28;20073;-52
2021/05/27 07:57:44;;;;;;;13.20;8.40;;;10.60;99.90;;;;;;5008647;28;20076;-46
2021/05/27 08:00:10;;;;;;;15.07;10.38;;;10.60;99.90;;;;;;5012843;28;20046;-48
2021/05/27 08:02:43;;;;;;;32.53;25.70;;;10.70;99.90;;;;;;5013142;28;20053;-51
2021/05/27 08:05:15;;;;;;;20.27;8.90;;;10.70;99.90;;;;;;5011412;28;20050;-48
2021/05/27 08:07:42;;;;;;;21.35;10.55;;;10.70;99.90;;;;;;5018327;28;20050;-45
2021/05/27 08:10:15;;;;;;;19.02;11.52;;;10.70;99.90;;;;;;4996133;28;20049;-48
2021/05/27 08:12:45;;;;;;;20.63;11.65;;;10.70;99.90;;;;;;5016287;28;20053;-51
2021/05/27 08:15:16;;;;;;;13.82;8.02;;;10.80;99.90;;;;;;5025332;28;20042;-50
2021/05/27 08:17:48;;;;;;;18.38;9.90;;;10.90;99.90;;;;;;5010572;28;20095;-47
2021/05/27 08:20:21;;;;;;;17.73;7.40;;;10.90;99.90;;;;;;5008381;28;20050;-44
2021/05/27 08:22:48;;;;;;;13.63;7.55;;;10.90;99.90;;;;;;4991808;28;20046;-46
2021/05/27 08:25:23;;;;;;;13.13;8.23;;;10.90;99.90;;;;;;5010417;28;20064;-46
2021/05/27 08:27:56;;;;;;;23.92;16.33;;;10.90;99.90;;;;;;5011891;28;20090;-42
2021/05/27 08:30:25;;;;;;;16.85;8.43;;;11.00;99.90;;;;;;5017783;28;20079;-49
2021/05/27 08:32:53;;;;;;;18.20;9.52;;;11.10;99.90;;;;;;5025875;28;20137;-46
2021/05/27 08:35:26;;;;;;;20.80;10.02;;;11.10;99.90;;;;;;5018020;28;20120;-46
2021/05/27 08:37:52;;;;;;;13.00;7.35;;;11.10;99.90;;;;;;5010751;28;20049;-48
2021/05/27 08:40:19;;;;;;;47.90;35.10;;;11.20;99.90;;;;;;5009769;28;20189;-46
2021/05/27 08:42:49;;;;;;;12.65;6.53;;;11.30;99.90;;;;;;5007232;28;20506;-47
2021/05/27 08:45:28;;;;;;;10.70;5.65;;;11.30;99.90;;;;;;5007172;28;20400;-44
2021/05/27 08:47:57;;;;;;;20.17;11.85;;;11.20;99.90;;;;;;5015348;28;20049;-45
2021/05/27 08:50:32;;;;;;;12.40;7.90;;;11.30;99.90;;;;;;5020195;28;20108;-45
2021/05/27 08:53:00;;;;;;;12.02;6.88;;;11.30;99.90;;;;;;5005122;28;20049;-48
2021/05/27 08:55:28;;;;;;;13.98;7.22;;;11.40;99.90;;;;;;5022292;28;20517;-44
2021/05/27 08:58:06;;;;;;;17.50;8.07;;;11.50;99.90;;;;;;5012938;28;20061;-50
2021/05/27 09:00:35;;;;;;;11.32;6.47;;;11.80;99.90;;;;;;5017674;28;20061;-47
2021/05/27 09:03:13;;;;;;;12.45;5.68;;;12.00;99.90;;;;;;5024672;28;20144;-48
2021/05/27 09:05:42;;;;;;;43.70;27.38;;;12.20;99.90;;;;;;5010957;28;20077;-43
2021/05/27 09:08:30;;;;;;;38.95;28.63;;;12.40;99.90;;;;;;5018106;28;20045;-46
2021/05/27 09:11:08;;;;;;;16.02;7.85;;;12.60;99.90;;;;;;5022262;28;20513;-47
2021/05/27 09:13:36;;;;;;;13.93;6.88;;;12.80;99.90;;;;;;5015556;28;20069;-47
2021/05/27 09:16:10;;;;;;;21.60;11.93;;;12.80;99.90;;;;;;5007515;28;20058;-49
2021/05/27 09:18:41;;;;;;;18.92;9.52;;;13.00;99.90;;;;;;5008007;28;20042;-47
2021/05/27 09:21:13;;;;;;;13.02;4.43;;;13.10;99.90;;;;;;5006483;28;20058;-45
2021/05/27 09:23:52;;;;;;;12.85;4.30;;;13.20;99.90;;;;;;5008083;28;20045;-48
2021/05/27 09:26:20;;;;;;;9.27;4.15;;;13.40;99.90;;;;;;5004500;28;20569;-47
2021/05/27 09:28:50;;;;;;;9.15;4.28;;;13.30;99.90;;;;;;4994337;28;20081;-46
2021/05/27 09:31:25;;;;;;;12.70;3.80;;;13.10;99.90;;;;;;5005237;28;20140;-48
2021/05/27 09:34:03;;;;;;;11.85;4.47;;;12.90;99.90;;;;;;5000224;28;20544;-49
2021/05/27 09:36:29;;;;;;;47.20;34.78;;;12.80;99.90;;;;;;4998743;28;20599;-44
2021/05/27 09:39:01;;;;;;;10.82;3.40;;;12.60;99.90;;;;;;4990890;28;20514;-53
2021/05/27 09:41:35;;;;;;;10.18;4.10;;;12.40;99.90;;;;;;4991716;28;20049;-46
2021/05/27 09:44:04;;;;;;;12.40;4.50;;;12.40;99.90;;;;;;4986678;28;20062;-47
2021/05/27 09:46:56;;;;;;;11.40;5.03;;;12.40;99.90;;;;;;4982724;28;20054;-44
2021/05/27 09:49:25;;;;;;;11.68;5.18;;;12.50;99.90;;;;;;4983752;28;20046;-44
2021/05/27 09:52:14;;;;;;;15.95;6.20;;;12.70;99.90;;;;;;5000303;28;20806;-48
2021/05/27 09:54:56;;;;;;;14.80;4.93;;;12.70;99.90;;;;;;4989266;28;20050;-50
2021/05/27 09:57:25;;;;;;;52.25;37.00;;;12.70;99.90;;;;;;4994693;28;20054;-48
2021/05/27 09:59:56;;;;;;;13.68;5.53;;;12.70;99.90;;;;;;5009710;28;20054;-45
2021/05/27 10:02:26;;;;;;;15.13;6.17;;;12.70;99.90;;;;;;5001919;28;20597;-49
2021/05/27 10:04:55;;;;;;;11.63;4.22;;;12.80;99.90;;;;;;4989352;28;20118;-48
2021/05/27 10:07:53;;;;;;;36.70;26.77;;;12.90;99.90;;;;;;4981686;28;20058;-48
2021/05/27 10:10:24;;;;;;;13.50;4.35;;;13.10;99.90;;;;;;5006384;28;20085;-46
2021/05/27 10:12:56;;;;;;;14.05;3.90;;;13.10;99.90;;;;;;5013434;28;20049;-47
2021/05/27 10:15:25;;;;;;;15.20;4.88;;;13.00;99.90;;;;;;5004641;28;20478;-45
2021/05/27 10:17:54;;;;;;;11.00;4.15;;;12.60;99.90;;;;;;4997367;28;20039;-47
2021/05/27 10:20:25;;;;;;;31.88;20.27;;;12.50;99.90;;;;;;4972505;28;20149;-44
2021/05/27 10:22:55;;;;;;;13.20;3.93;;;12.50;99.90;;;;;;4990988;28;20076;-45
2021/05/27 10:25:25;;;;;;;14.73;3.75;;;12.30;99.90;;;;;;4989848;28;20547;-47
2021/05/27 10:27:53;;;;;;;14.60;4.75;;;12.30;99.90;;;;;;4936179;28;1151349;-45
2021/05/27 10:30:22;;;;;;;14.57;4.25;;;12.40;99.90;;;;;;5009099;28;20125;-46
2021/05/27 10:32:53;;;;;;;14.55;3.70;;;12.40;99.90;;;;;;5010569;28;20053;-45
2021/05/27 10:35:20;;;;;;;12.02;6.55;;;12.30;99.90;;;;;;5007575;28;20046;-47
2021/05/27 10:37:48;;;;;;;10.20;3.35;;;12.40;99.90;;;;;;5009832;28;20058;-49
2021/05/27 10:40:17;;;;;;;9.73;3.70;;;12.30;99.90;;;;;;5009608;28;20145;-49
2021/05/27 10:42:56;;;;;;;8.85;3.65;;;12.40;99.90;;;;;;5010313;28;20053;-43
2021/05/27 10:45:29;;;;;;;15.20;5.78;;;12.50;99.90;;;;;;5010467;28;20510;-45
2021/05/27 10:48:13;;;;;;;17.63;5.80;;;12.70;99.90;;;;;;5008681;28;20112;-47
2021/05/27 10:50:50;;;;;;;12.40;4.95;;;12.80;99.90;;;;;;5010154;28;20065;-46
2021/05/27 10:53:36;;;;;;;12.88;5.72;;;13.00;99.90;;;;;;5009711;28;20046;-45
2021/05/27 10:56:05;;;;;;;12.00;4.15;;;13.50;99.90;;;;;;5009298;28;20141;-46
2021/05/27 10:58:46;;;;;;;10.98;3.88;;;14.30;99.90;;;;;;5008545;28;20054;-49
2021/05/27 11:01:28;;;;;;;17.15;5.30;;;15.00;99.90;;;;;;5009925;28;20049;-45
2021/05/27 11:03:57;;;;;;;12.80;3.80;;;14.90;97.30;;;;;;5011078;28;20070;-46
2021/05/27 11:06:33;;;;;;;7.68;3.15;;;14.60;98.30;;;;;;5013010;28;20140;-49
2021/05/27 11:09:21;;;;;;;11.52;3.33;;;14.50;97.50;;;;;;4992103;28;20136;-49
2021/05/27 11:11:51;;;;;;;9.38;2.70;;;14.30;97.40;;;;;;5011979;28;20216;-46
2021/05/27 11:14:23;;;;;;;13.40;3.38;;;14.30;97.90;;;;;;5014229;28;20056;-47
2021/05/27 11:17:05;;;;;;;11.07;3.22;;;14.40;97.60;;;;;;5021891;28;20481;-47
2021/05/27 11:25:15;;;;;;;3.92;2.08;;;14.50;95.50;;;;;;5008911;28;20050;-48
2021/05/27 11:27:49;;;;;;;6.68;2.10;;;14.30;95.40;;;;;;5009640;28;20413;-44
2021/05/27 11:30:39;;;;;;;5.70;1.50;;;14.20;96.60;;;;;;5011160;28;20479;-45
2021/05/27 11:33:18;;;;;;;5.53;1.92;;;14.60;96.90;;;;;;5010106;28;20053;-47
2021/05/27 11:35:46;;;;;;;6.90;2.03;;;14.90;96.70;;;;;;4999377;28;20041;-46
2021/05/27 11:38:14;;;;;;;6.78;1.88;;;15.00;95.60;;;;;;4999607;28;20470;-48
2021/05/27 11:40:49;;;;;;;9.45;2.08;;;14.90;95.60;;;;;;5000712;28;20111;-45
2021/05/27 11:43:18;;;;;;;7.97;2.47;;;15.00;95.50;;;;;;4997269;28;20713;-49
2021/05/27 11:45:51;;;;;;;8.93;2.45;;;15.40;95.30;;;;;;5009195;28;20069;-48
2021/05/27 11:51:00;;;;;;;7.28;1.52;;;15.10;95.80;;;;;;5012860;28;20149;-45
2021/05/27 11:53:27;;;;;;;5.32;1.50;;;15.20;96.20;;;;;;5008478;28;20600;-44
2021/05/27 11:55:58;;;;;;;4.90;2.13;;;15.10;95.90;;;;;;5015786;28;20139;-49
2021/05/27 11:58:36;;;;;;;5.68;2.10;;;15.80;97.30;;;;;;5009183;28;20057;-45
2021/05/27 12:01:17;;;;;;;8.35;2.33;;;16.80;96.30;;;;;;5008666;28;20054;-50
2021/05/27 12:04:03;;;;;;;5.22;1.80;;;16.80;95.20;;;;;;5008538;28;20056;-49
2021/05/27 12:06:50;;;;;;;10.70;2.92;;;16.60;94.30;;;;;;5007094;28;20063;-46
2021/05/27 12:09:41;;;;;;;8.48;2.25;;;16.30;93.90;;;;;;5008973;28;20050;-49
2021/05/27 12:12:26;;;;;;;8.32;2.22;;;16.10;94.10;;;;;;5007498;28;20046;-47
2021/05/27 12:14:55;;;;;;;10.43;2.58;;;16.00;92.90;;;;;;5008356;28;20056;-45
2021/05/27 12:17:27;;;;;;;10.07;2.90;;;15.90;93.90;;;;;;5008782;28;20057;-47
2021/05/27 12:20:07;;;;;;;11.60;2.90;;;16.00;94.20;;;;;;5008659;28;20057;-47
2021/05/27 12:22:50;;;;;;;8.63;2.53;;;15.80;94.00;;;;;;5007771;28;20844;-48
2021/05/27 12:25:24;;;;;;;11.35;2.65;;;15.50;93.20;;;;;;5007548;28;20061;-48
2021/05/27 12:27:53;;;;;;;7.97;2.25;;;15.10;93.00;;;;;;4994300;28;20074;-44
2021/05/27 12:30:21;;;;;;;13.23;2.50;;;15.10;95.20;;;;;;5008487;28;20182;-44
2021/05/27 12:32:52;;;;;;;9.43;2.72;;;14.70;94.50;;;;;;4990661;28;20141;-49
2021/05/27 12:35:24;;;;;;;8.82;2.30;;;14.20;93.90;;;;;;5015991;28;20051;-47
2021/05/27 12:37:54;;;;;;;3.60;1.20;;;14.10;95.30;;;;;;5010099;28;20450;-46
2021/05/27 12:40:33;;;;;;;6.95;1.70;;;13.90;95.20;;;;;;5008201;28;20049;-46
2021/05/27 12:43:03;;;;;;;5.68;1.40;;;13.80;95.20;;;;;;5026119;28;20051;-47
2021/05/27 12:45:38;;;;;;;5.47;1.55;;;13.90;95.70;;;;;;5008060;28;20061;-49
2021/05/27 12:48:27;;;;;;;4.43;1.58;;;14.00;95.60;;;;;;5012657;28;20038;-50
2021/05/27 12:51:03;;;;;;;9.60;2.85;;;14.50;96.00;;;;;;5018001;28;20129;-43
2021/05/27 12:53:50;;;;;;;8.43;4.75;;;15.40;95.70;;;;;;5014178;28;20042;-45
2021/05/27 12:56:27;;;;;;;8.32;2.65;;;16.20;94.60;;;;;;5021075;28;20061;-44
2021/05/27 12:59:08;;;;;;;11.75;4.88;;;16.60;91.80;;;;;;5009058;28;20048;-46
2021/05/27 13:01:46;;;;;;;9.68;4.53;;;16.40;92.50;;;;;;5008967;28;20750;-44
2021/05/27 13:04:21;;;;;;;6.97;2.22;;;16.70;92.60;;;;;;5008176;28;20535;-45
2021/05/27 13:06:50;;;;;;;6.90;1.98;;;16.20;89.30;;;;;;5007925;28;20058;-46
2021/05/27 13:09:19;;;;;;;55.97;46.75;;;16.00;91.50;;;;;;5001960;28;20060;-49
2021/05/27 13:11:59;;;;;;;12.85;5.82;;;15.90;92.40;;;;;;5001735;28;20581;-46
2021/05/27 13:14:31;;;;;;;28.02;21.83;;;16.00;91.10;;;;;;4994107;28;20586;-47